Time;durP1;ratioP1;P1;durP2;ratioP2;P2;SDS_P1;SDS_P2;PMS_P1;PMS_P2;Temp;Humidity;BMP_temperature;BMP_pressure;BME280_temperature;BME280_humidity;BME280_pressure;Samples;Min_cycle;Max_cycle;Signal;HPM_P1;HPM_P2
2023/07/22 00:00:14;;;;;;;4.80;3.27;;;17.00;91.50;;;;;;5013209;28;20184;-74
2023/07/22 00:02:39;;;;;;;5.27;2.80;;;17.00;91.60;;;;;;5012340;28;20214;-73
2023/07/22 00:05:05;;;;;;;5.33;4.03;;;16.90;91.70;;;;;;5003902;28;20596;-73
2023/07/22 00:07:31;;;;;;;4.13;3.03;;;16.90;91.80;;;;;;4995825;28;20285;-73
2023/07/22 00:09:57;;;;;;;5.40;3.17;;;16.90;91.90;;;;;;4993249;28;20578;-73
2023/07/22 00:12:25;;;;;;;5.50;4.20;;;16.80;92.00;;;;;;4993377;28;20209;-73
2023/07/22 00:14:53;;;;;;;3.90;1.93;;;16.80;92.20;;;;;;5011025;28;20595;-73
2023/07/22 00:17:20;;;;;;;7.50;3.20;;;16.80;92.40;;;;;;5000549;28;21165;-74
2023/07/22 00:19:46;;;;;;;6.80;3.43;;;16.80;92.40;;;;;;5039208;28;20592;-74
2023/07/22 00:22:12;;;;;;;4.20;3.33;;;16.70;92.40;;;;;;5023765;28;20640;-73
2023/07/22 00:24:38;;;;;;;4.40;3.37;;;16.70;92.50;;;;;;5037189;28;20711;-73
2023/07/22 00:27:04;;;;;;;8.20;3.90;;;16.70;92.60;;;;;;5003031;28;20181;-74
2023/07/22 00:29:29;;;;;;;3.83;3.10;;;16.70;92.70;;;;;;5012225;28;20184;-74
2023/07/22 00:31:55;;;;;;;5.10;3.60;;;16.70;92.90;;;;;;5012655;28;20707;-74
2023/07/22 00:34:23;;;;;;;4.50;3.53;;;16.70;92.90;;;;;;5024401;28;20613;-74
2023/07/22 00:36:48;;;;;;;5.93;3.30;;;16.70;93.00;;;;;;5032575;28;20218;-74
2023/07/22 00:39:14;;;;;;;4.53;3.20;;;16.60;93.00;;;;;;5049960;28;20614;-74
2023/07/22 00:41:42;;;;;;;5.70;3.87;;;16.60;93.00;;;;;;5015548;28;20806;-74
2023/07/22 00:44:08;;;;;;;5.30;2.97;;;16.60;93.10;;;;;;5050480;28;20212;-74
2023/07/22 00:46:33;;;;;;;4.83;4.27;;;16.60;93.20;;;;;;5011169;28;20579;-74
2023/07/22 00:48:59;;;;;;;3.70;2.70;;;16.60;93.30;;;;;;5023925;28;20180;-74
2023/07/22 00:51:25;;;;;;;4.40;3.13;;;16.60;93.40;;;;;;5049951;28;20196;-74
2023/07/22 00:53:51;;;;;;;5.33;3.53;;;16.50;93.50;;;;;;5032290;28;20574;-74
2023/07/22 00:56:16;;;;;;;4.60;3.00;;;16.50;93.60;;;;;;5031897;28;20188;-74
2023/07/22 00:58:42;;;;;;;4.50;3.53;;;16.50;93.70;;;;;;5032344;28;20235;-74
2023/07/22 01:01:08;;;;;;;4.20;3.37;;;16.50;93.80;;;;;;4997817;28;20189;-74
2023/07/22 01:03:34;;;;;;;4.93;3.17;;;16.50;93.80;;;;;;5032038;28;20646;-74
2023/07/22 01:06:00;;;;;;;4.57;3.57;;;16.50;93.90;;;;;;5032035;28;20176;-74
2023/07/22 01:08:26;;;;;;;6.57;3.33;;;16.50;93.90;;;;;;5049896;28;20251;-74
2023/07/22 01:10:52;;;;;;;4.00;3.10;;;16.50;94.00;;;;;;5031522;28;20678;-74
2023/07/22 01:13:18;;;;;;;3.53;2.80;;;16.50;94.10;;;;;;5030614;28;20197;-74
2023/07/22 01:15:44;;;;;;;5.43;4.53;;;16.50;94.10;;;;;;5002125;28;20177;-74
2023/07/22 01:18:10;;;;;;;4.97;3.63;;;16.50;94.30;;;;;;5021536;28;20189;-74
2023/07/22 01:20:36;;;;;;;3.80;3.30;;;16.50;94.40;;;;;;5009679;28;21134;-74
2023/07/22 01:23:02;;;;;;;4.90;3.33;;;16.50;94.50;;;;;;4999918;28;20648;-74
2023/07/22 01:25:28;;;;;;;6.43;3.63;;;16.50;94.60;;;;;;5008947;28;21188;-74
2023/07/22 01:27:54;;;;;;;5.40;3.67;;;16.50;94.80;;;;;;4992542;28;20900;-74
2023/07/22 01:30:19;;;;;;;5.70;3.43;;;16.50;94.90;;;;;;4992106;28;20623;-74
2023/07/22 01:32:47;;;;;;;6.97;3.53;;;16.50;94.90;;;;;;4992143;28;20678;-74
2023/07/22 01:35:13;;;;;;;5.10;4.07;;;16.50;95.00;;;;;;5011293;28;20182;-74
2023/07/22 01:37:39;;;;;;;5.30;3.80;;;16.50;95.00;;;;;;4980388;28;20652;-75
2023/07/22 01:40:12;;;;;;;7.00;3.30;;;16.50;95.20;;;;;;4979604;28;20597;-74
2023/07/22 01:42:38;;;;;;;4.87;3.27;;;16.50;95.40;;;;;;4996109;28;20209;-74
2023/07/22 01:45:07;;;;;;;5.47;3.63;;;16.50;95.50;;;;;;4995962;28;20601;-74
2023/07/22 01:47:38;;;;;;;4.83;3.60;;;16.50;95.70;;;;;;4996086;28;20577;-74
2023/07/22 01:50:06;;;;;;;5.50;3.90;;;16.50;96.00;;;;;;4995290;28;20589;-74
2023/07/22 01:52:32;;;;;;;5.23;4.07;;;16.50;96.40;;;;;;4979428;28;20612;-74
2023/07/22 01:54:58;;;;;;;4.87;4.00;;;16.50;96.30;;;;;;5013245;28;20581;-74
2023/07/22 01:57:24;;;;;;;4.63;3.70;;;16.50;96.40;;;;;;4996199;28;21061;-74
2023/07/22 01:59:50;;;;;;;5.13;3.53;;;16.60;96.50;;;;;;4995003;28;20187;-74
2023/07/22 02:02:16;;;;;;;5.60;5.00;;;16.60;96.60;;;;;;4995852;28;20665;-74
2023/07/22 02:04:41;;;;;;;6.30;4.37;;;16.60;96.70;;;;;;5011966;28;20613;-74
2023/07/22 02:07:07;;;;;;;6.00;4.10;;;16.60;96.80;;;;;;4979992;28;20252;-74
2023/07/22 02:09:33;;;;;;;5.33;4.40;;;16.60;96.90;;;;;;4995352;28;20626;-74
2023/07/22 02:11:59;;;;;;;7.27;4.70;;;16.70;97.00;;;;;;4995245;28;20194;-74
2023/07/22 02:14:24;;;;;;;6.10;4.47;;;16.70;97.00;;;;;;4995987;28;20544;-74
2023/07/22 02:16:50;;;;;;;7.27;4.80;;;16.70;97.20;;;;;;4995399;28;20608;-74
2023/07/22 02:19:16;;;;;;;6.27;3.90;;;16.70;97.30;;;;;;4995498;28;20265;-74
2023/07/22 02:21:42;;;;;;;6.00;4.63;;;16.70;97.40;;;;;;4995384;28;21135;-73
2023/07/22 02:24:09;;;;;;;6.13;4.33;;;16.70;97.50;;;;;;4979272;28;20209;-73
2023/07/22 02:26:35;;;;;;;5.33;4.47;;;16.80;97.50;;;;;;4994784;28;21175;-73
2023/07/22 02:29:00;;;;;;;5.87;4.40;;;16.70;97.50;;;;;;4994929;28;20596;-74
2023/07/22 02:31:26;;;;;;;5.70;4.67;;;16.70;97.60;;;;;;4994831;28;20285;-73
2023/07/22 02:33:53;;;;;;;6.30;5.37;;;16.70;97.70;;;;;;5013232;28;21184;-73
2023/07/22 02:36:18;;;;;;;6.50;4.80;;;16.70;97.80;;;;;;4995215;28;20273;-74
2023/07/22 02:38:44;;;;;;;5.57;5.00;;;16.70;97.90;;;;;;4978828;28;20672;-74
2023/07/22 02:41:12;;;;;;;5.57;4.20;;;16.70;98.00;;;;;;5012429;28;20217;-74
2023/07/22 02:43:40;;;;;;;5.47;4.17;;;16.60;98.10;;;;;;5011348;28;20726;-74
2023/07/22 02:46:07;;;;;;;5.53;4.53;;;16.60;98.10;;;;;;4995082;28;20579;-74
2023/07/22 02:48:33;;;;;;;5.07;4.27;;;16.60;98.30;;;;;;4994331;28;21136;-74
2023/07/22 02:51:10;;;;;;;6.87;5.20;;;16.60;98.40;;;;;;4994866;28;20593;-74
2023/07/22 02:53:36;;;;;;;5.60;5.00;;;16.60;98.40;;;;;;4994832;28;20585;-74
2023/07/22 02:56:03;;;;;;;7.67;5.90;;;16.60;98.40;;;;;;4994938;28;20573;-74
2023/07/22 02:58:29;;;;;;;7.80;5.17;;;16.50;98.50;;;;;;4994959;28;20592;-74
2023/07/22 03:00:57;;;;;;;5.17;4.10;;;16.50;98.70;;;;;;4994502;28;20589;-74
2023/07/22 03:03:23;;;;;;;5.50;4.90;;;16.50;98.80;;;;;;4978205;28;20293;-74
2023/07/22 03:05:49;;;;;;;6.27;4.30;;;16.50;98.90;;;;;;4962673;28;20688;-74
2023/07/22 03:08:17;;;;;;;6.00;5.10;;;16.50;99.10;;;;;;4994935;28;20594;-74
2023/07/22 03:10:48;;;;;;;6.67;4.60;;;16.50;99.20;;;;;;4994537;28;20631;-74
2023/07/22 03:13:15;;;;;;;6.67;5.20;;;16.50;99.20;;;;;;4994310;28;20679;-74
2023/07/22 03:15:40;;;;;;;6.20;5.60;;;16.50;99.40;;;;;;4994702;28;20581;-74
2023/07/22 03:18:06;;;;;;;5.40;4.70;;;16.50;99.40;;;;;;5006031;28;20584;-74
2023/07/22 03:20:32;;;;;;;5.63;4.87;;;16.50;99.50;;;;;;5013162;28;20249;-74
2023/07/22 03:22:58;;;;;;;6.10;4.80;;;16.50;99.60;;;;;;4997245;28;20275;-74
2023/07/22 03:25:23;;;;;;;6.00;4.73;;;16.50;99.60;;;;;;4997377;28;20173;-74
2023/07/22 03:27:49;;;;;;;5.50;4.70;;;16.50;99.60;;;;;;5014318;28;20174;-73
2023/07/22 03:30:17;;;;;;;7.17;5.23;;;16.50;99.60;;;;;;4996999;28;20208;-73
2023/07/22 03:32:44;;;;;;;6.30;4.80;;;16.50;99.70;;;;;;5013660;28;20244;-74
2023/07/22 03:35:10;;;;;;;6.80;4.90;;;16.50;99.70;;;;;;5031594;28;20607;-74
2023/07/22 03:37:36;;;;;;;5.47;4.80;;;16.50;99.80;;;;;;4997793;28;20623;-74
2023/07/22 03:40:06;;;;;;;9.57;4.70;;;16.50;99.80;;;;;;5012881;28;20708;-73
2023/07/22 03:42:34;;;;;;;6.43;4.90;;;16.60;99.90;;;;;;5013400;28;20651;-73
2023/07/22 03:44:59;;;;;;;6.07;4.10;;;16.60;99.90;;;;;;5013687;28;20584;-73
2023/07/22 03:47:25;;;;;;;6.63;4.17;;;16.60;99.80;;;;;;5013896;28;20588;-73
2023/07/22 03:49:51;;;;;;;5.10;4.57;;;16.60;99.80;;;;;;5013338;28;20174;-73
2023/07/22 03:52:18;;;;;;;6.23;4.67;;;16.60;99.90;;;;;;5013032;28;20202;-73
2023/07/22 03:54:44;;;;;;;5.07;4.40;;;16.60;99.80;;;;;;4997414;28;20580;-73
2023/07/22 03:57:10;;;;;;;5.80;4.77;;;16.60;99.90;;;;;;5013424;28;20592;-74
2023/07/22 03:59:36;;;;;;;4.77;4.30;;;16.60;99.90;;;;;;5030415;28;20573;-74
2023/07/22 04:02:02;;;;;;;7.80;5.37;;;16.60;99.90;;;;;;5012968;28;21180;-74
2023/07/22 04:04:28;;;;;;;5.63;5.03;;;16.60;99.90;;;;;;5013654;28;20243;-73
2023/07/22 04:06:54;;;;;;;5.77;4.43;;;16.60;99.90;;;;;;5013068;28;20588;-74
2023/07/22 04:09:20;;;;;;;7.90;4.20;;;16.60;99.90;;;;;;5012919;28;20569;-74
2023/07/22 04:11:45;;;;;;;5.50;4.67;;;16.60;99.90;;;;;;5012904;28;20276;-74
2023/07/22 04:14:12;;;;;;;5.67;4.60;;;16.60;99.90;;;;;;5013652;28;20332;-73
2023/07/22 04:16:38;;;;;;;5.10;3.90;;;16.60;99.90;;;;;;5013640;28;20653;-73
2023/07/22 04:19:04;;;;;;;5.20;4.40;;;16.70;99.90;;;;;;5030182;28;20572;-73
2023/07/22 04:21:30;;;;;;;6.27;4.23;;;16.70;99.90;;;;;;5030606;28;20626;-73
2023/07/22 04:23:55;;;;;;;7.00;4.83;;;16.70;99.90;;;;;;5030381;28;20624;-73
2023/07/22 04:26:21;;;;;;;4.47;3.57;;;16.80;99.90;;;;;;4996663;28;20220;-73
2023/07/22 04:28:47;;;;;;;6.17;4.17;;;16.80;99.90;;;;;;5012321;28;20169;-73
2023/07/22 04:31:12;;;;;;;4.97;3.47;;;16.80;99.90;;;;;;5014660;28;20717;-74
2023/07/22 04:33:38;;;;;;;5.17;4.13;;;16.90;99.90;;;;;;5012551;28;20200;-73
2023/07/22 04:36:04;;;;;;;4.17;3.37;;;16.90;99.90;;;;;;5030586;28;20196;-73
2023/07/22 04:38:29;;;;;;;5.43;4.43;;;16.90;99.90;;;;;;5012036;28;20212;-73
2023/07/22 04:40:55;;;;;;;4.30;3.83;;;16.90;99.90;;;;;;5012815;28;20186;-73
2023/07/22 04:43:21;;;;;;;5.20;3.83;;;17.00;99.90;;;;;;5012541;28;20213;-73
2023/07/22 04:45:50;;;;;;;4.67;3.80;;;17.00;99.90;;;;;;4980125;28;20180;-73
2023/07/22 04:48:18;;;;;;;4.53;4.10;;;16.90;99.90;;;;;;5012967;28;20174;-73
2023/07/22 04:50:44;;;;;;;4.07;3.57;;;17.00;99.90;;;;;;5012136;28;20603;-74
2023/07/22 04:53:13;;;;;;;3.97;3.30;;;16.90;99.90;;;;;;5012275;28;21374;-73
2023/07/22 04:55:39;;;;;;;4.70;3.40;;;17.00;99.90;;;;;;5012397;28;21245;-73
2023/07/22 04:58:05;;;;;;;4.10;3.47;;;17.00;99.90;;;;;;5030523;28;20572;-73
2023/07/22 05:00:31;;;;;;;5.03;4.17;;;17.00;99.90;;;;;;5011828;28;20588;-73
2023/07/22 05:02:57;;;;;;;4.30;3.77;;;17.00;99.90;;;;;;5012386;28;20274;-73
2023/07/22 05:05:23;;;;;;;6.30;3.80;;;17.10;99.90;;;;;;5029936;28;20667;-74
2023/07/22 05:07:49;;;;;;;6.20;3.83;;;17.10;99.90;;;;;;5012653;28;20800;-73
2023/07/22 05:10:15;;;;;;;5.73;3.70;;;17.20;99.90;;;;;;5010966;28;20265;-74
2023/07/22 05:12:41;;;;;;;5.30;4.03;;;17.20;99.90;;;;;;4995980;28;20604;-73
2023/07/22 05:15:09;;;;;;;5.60;3.77;;;17.30;99.90;;;;;;5012700;28;20616;-73
2023/07/22 05:17:35;;;;;;;6.07;4.50;;;17.40;99.90;;;;;;5012314;28;20759;-73
2023/07/22 05:20:00;;;;;;;3.80;3.37;;;17.40;99.90;;;;;;5029720;28;20663;-73
2023/07/22 05:22:26;;;;;;;4.70;4.07;;;17.50;99.90;;;;;;5007734;28;20568;-73
2023/07/22 05:24:52;;;;;;;4.67;4.00;;;17.60;99.90;;;;;;5005460;28;20653;-73
2023/07/22 05:27:18;;;;;;;5.60;4.00;;;17.70;99.90;;;;;;4998218;28;20170;-74
2023/07/22 05:29:44;;;;;;;5.73;4.53;;;17.80;99.90;;;;;;5005395;28;20178;-74
2023/07/22 05:32:10;;;;;;;5.03;4.37;;;18.00;99.90;;;;;;4992194;28;20932;-74
2023/07/22 05:34:36;;;;;;;7.50;4.67;;;18.10;99.90;;;;;;4992755;28;20609;-74
2023/07/22 05:37:02;;;;;;;5.63;4.30;;;18.20;99.90;;;;;;5009735;28;20580;-73
2023/07/22 05:39:27;;;;;;;5.50;4.60;;;18.30;99.90;;;;;;5009957;28;20186;-73
2023/07/22 05:41:54;;;;;;;6.67;4.70;;;18.30;99.90;;;;;;5009643;28;20194;-74
2023/07/22 05:44:20;;;;;;;5.73;4.50;;;18.40;99.90;;;;;;5010194;28;21192;-74
2023/07/22 05:46:45;;;;;;;5.53;4.60;;;18.50;99.90;;;;;;4992690;28;20573;-74
2023/07/22 05:49:11;;;;;;;4.53;3.90;;;18.60;99.90;;;;;;5008198;28;20174;-74
2023/07/22 05:51:37;;;;;;;5.10;4.10;;;18.70;99.90;;;;;;4991867;28;20242;-74
2023/07/22 05:54:03;;;;;;;7.50;4.43;;;18.80;99.70;;;;;;4992192;28;20684;-74
2023/07/22 05:56:29;;;;;;;4.87;4.37;;;19.00;99.90;;;;;;5010200;28;20182;-74
2023/07/22 05:58:54;;;;;;;6.77;5.33;;;19.30;99.90;;;;;;4991679;28;20186;-74
2023/07/22 06:01:21;;;;;;;5.70;3.87;;;19.90;99.90;;;;;;4995105;28;20216;-73
2023/07/22 06:03:47;;;;;;;5.90;4.17;;;20.70;99.90;;;;;;5011690;28;20205;-74
2023/07/22 06:06:13;;;;;;;5.23;4.30;;;21.40;99.90;;;;;;5012039;28;20596;-74
2023/07/22 06:08:39;;;;;;;7.03;4.57;;;21.80;99.90;;;;;;5011734;28;20174;-74
2023/07/22 06:11:05;;;;;;;7.33;4.30;;;22.30;99.60;;;;;;5011082;28;21159;-74
2023/07/22 06:13:31;;;;;;;7.70;4.50;;;22.60;98.50;;;;;;5011992;28;20196;-74
2023/07/22 06:15:56;;;;;;;5.33;4.13;;;22.80;97.80;;;;;;5029279;28;20947;-74
2023/07/22 06:18:23;;;;;;;6.13;4.33;;;23.10;97.40;;;;;;5028969;28;20177;-74
2023/07/22 06:20:49;;;;;;;4.30;3.77;;;23.40;97.20;;;;;;5029059;28;20181;-74
2023/07/22 06:23:15;;;;;;;6.27;5.10;;;23.60;96.40;;;;;;5015030;28;20690;-76
2023/07/22 06:25:41;;;;;;;6.00;5.30;;;23.90;96.00;;;;;;5023928;28;21696;-74
2023/07/22 06:28:07;;;;;;;5.00;4.50;;;24.10;95.50;;;;;;5041567;28;20283;-74
2023/07/22 06:30:32;;;;;;;6.30;4.97;;;24.40;95.30;;;;;;5020027;28;20903;-74
2023/07/22 06:32:58;;;;;;;6.40;4.23;;;24.90;95.30;;;;;;5009755;28;20196;-74
2023/07/22 06:35:24;;;;;;;6.10;3.60;;;25.30;95.00;;;;;;5034558;28;20532;-74
2023/07/22 06:37:49;;;;;;;4.40;4.00;;;25.80;94.50;;;;;;5024705;28;20176;-74
2023/07/22 06:40:15;;;;;;;4.17;3.63;;;25.90;93.30;;;;;;5026597;28;20557;-74
2023/07/22 06:42:41;;;;;;;4.27;3.43;;;25.90;92.30;;;;;;5028660;28;20283;-74
2023/07/22 06:45:07;;;;;;;4.63;3.87;;;25.90;91.70;;;;;;5034719;28;20169;-74
2023/07/22 06:47:33;;;;;;;5.23;4.10;;;25.80;90.40;;;;;;5043703;28;20319;-74
2023/07/22 06:49:58;;;;;;;4.90;3.90;;;25.70;89.60;;;;;;5017490;28;20672;-74
2023/07/22 06:52:24;;;;;;;4.87;3.97;;;25.50;88.90;;;;;;5017835;28;20599;-74
2023/07/22 06:54:50;;;;;;;4.40;3.20;;;25.30;87.80;;;;;;5034833;28;20185;-74
2023/07/22 06:57:16;;;;;;;6.13;3.93;;;25.10;87.00;;;;;;5034463;28;20587;-74
2023/07/22 06:59:41;;;;;;;5.03;3.70;;;24.90;86.70;;;;;;5034032;28;20286;-74
2023/07/22 07:02:08;;;;;;;5.30;4.50;;;24.80;86.80;;;;;;5018733;28;20658;-74
2023/07/22 07:04:34;;;;;;;4.23;3.50;;;24.60;86.20;;;;;;5025260;28;20210;-74
2023/07/22 07:07:00;;;;;;;4.87;4.37;;;24.60;86.60;;;;;;5020778;28;20584;-74
2023/07/22 07:09:25;;;;;;;4.37;3.60;;;24.50;86.70;;;;;;5025610;28;20617;-75
2023/07/22 07:11:51;;;;;;;5.80;4.20;;;24.50;86.70;;;;;;5034045;28;20200;-74
2023/07/22 07:14:17;;;;;;;5.50;3.90;;;24.40;86.50;;;;;;5051902;28;20578;-74
2023/07/22 07:16:43;;;;;;;3.90;3.50;;;24.30;86.30;;;;;;5034034;28;20185;-74
2023/07/22 07:19:10;;;;;;;5.77;4.50;;;24.30;86.10;;;;;;5051369;28;21178;-74
2023/07/22 07:21:35;;;;;;;6.10;4.47;;;24.30;85.90;;;;;;5033699;28;20619;-74
2023/07/22 07:24:01;;;;;;;4.30;3.90;;;24.20;85.70;;;;;;5033763;28;20964;-74
2023/07/22 07:26:27;;;;;;;8.33;3.90;;;24.20;85.50;;;;;;5034134;28;20586;-73
2023/07/22 07:28:53;;;;;;;6.10;4.10;;;24.20;85.30;;;;;;5033039;28;20675;-74
2023/07/22 07:31:19;;;;;;;4.90;3.90;;;24.10;84.80;;;;;;5031885;28;20193;-74
2023/07/22 07:33:45;;;;;;;6.20;4.20;;;24.00;84.60;;;;;;5042870;28;20678;-74
2023/07/22 07:36:11;;;;;;;5.67;3.97;;;24.00;84.30;;;;;;5025368;28;21019;-74
2023/07/22 07:38:40;;;;;;;5.37;3.83;;;24.00;84.20;;;;;;5028492;28;20591;-74
2023/07/22 07:41:11;;;;;;;5.67;4.67;;;24.00;84.00;;;;;;5024593;28;20675;-74
2023/07/22 07:43:38;;;;;;;5.70;4.40;;;24.00;84.00;;;;;;5033460;28;20627;-75
2023/07/22 07:46:27;;;;;;;7.30;4.50;;;24.00;84.10;;;;;;5020672;28;20582;-74
2023/07/22 07:48:57;;;;;;;5.07;4.40;;;24.10;83.30;;;;;;5031811;28;20588;-74
2023/07/22 07:51:26;;;;;;;4.97;3.70;;;24.40;85.00;;;;;;5031801;28;20628;-74
2023/07/22 07:53:52;;;;;;;4.93;4.43;;;24.60;84.80;;;;;;5033398;28;20603;-74
2023/07/22 07:56:18;;;;;;;5.67;4.10;;;24.80;84.60;;;;;;5033040;28;20595;-74
2023/07/22 07:58:46;;;;;;;5.00;4.30;;;25.10;84.40;;;;;;5032909;28;20575;-74
2023/07/22 08:01:11;;;;;;;3.83;3.43;;;25.50;84.20;;;;;;5025688;28;20958;-74
2023/07/22 08:03:39;;;;;;;6.70;3.50;;;25.90;84.50;;;;;;4997284;28;20640;-75
2023/07/22 08:06:06;;;;;;;5.53;3.47;;;26.50;85.30;;;;;;5014370;28;20278;-74
2023/07/22 08:08:32;;;;;;;3.93;3.50;;;27.40;86.10;;;;;;5042783;28;20579;-75
2023/07/22 08:11:02;;;;;;;5.77;4.10;;;28.30;85.70;;;;;;5032421;28;21111;-75
2023/07/22 08:13:30;;;;;;;4.87;3.70;;;29.10;84.10;;;;;;5032784;28;20184;-75
2023/07/22 08:16:00;;;;;;;4.70;3.63;;;30.10;83.30;;;;;;5032817;28;20579;-75
2023/07/22 08:18:26;;;;;;;3.60;3.20;;;31.10;82.80;;;;;;5051005;28;20586;-75
2023/07/22 08:20:53;;;;;;;3.13;2.83;;;32.00;79.50;;;;;;5050493;28;20581;-75
2023/07/22 08:23:19;;;;;;;5.23;2.90;;;32.80;75.40;;;;;;5032269;28;20222;-76
2023/07/22 08:25:45;;;;;;;4.37;3.37;;;33.40;72.10;;;;;;5032814;28;20594;-75
2023/07/22 08:28:11;;;;;;;4.90;3.03;;;33.90;68.00;;;;;;5032199;28;21168;-75
2023/07/22 08:30:38;;;;;;;4.17;3.47;;;34.10;64.70;;;;;;5032129;28;20207;-75
2023/07/22 08:33:04;;;;;;;3.70;2.73;;;34.30;62.40;;;;;;5050072;28;20560;-75
2023/07/22 08:35:29;;;;;;;2.80;2.50;;;34.60;60.60;;;;;;5050685;28;20582;-75
2023/07/22 08:37:55;;;;;;;3.70;2.37;;;34.80;58.50;;;;;;5032409;28;20187;-75
2023/07/22 08:40:21;;;;;;;3.40;2.97;;;35.10;58.00;;;;;;5026666;28;20268;-75
2023/07/22 08:42:49;;;;;;;3.10;2.53;;;35.10;55.80;;;;;;5010669;28;20347;-75
2023/07/22 08:45:16;;;;;;;2.43;2.07;;;35.00;54.40;;;;;;5023092;28;20184;-75
2023/07/22 08:47:52;;;;;;;3.80;3.00;;;34.90;54.00;;;;;;5050136;28;20973;-75
2023/07/22 08:50:24;;;;;;;3.37;3.07;;;34.90;52.80;;;;;;5032184;28;21160;-75
2023/07/22 08:52:51;;;;;;;2.70;2.23;;;34.90;52.80;;;;;;4997549;28;20633;-75
2023/07/22 08:55:17;;;;;;;2.87;2.57;;;34.90;52.00;;;;;;5041115;28;20728;-75
2023/07/22 08:57:44;;;;;;;2.80;2.40;;;34.80;51.40;;;;;;5050106;28;20582;-75
2023/07/22 09:00:11;;;;;;;4.60;2.67;;;34.60;50.40;;;;;;5022244;28;20602;-75
2023/07/22 09:02:38;;;;;;;3.40;2.60;;;34.60;50.00;;;;;;4992764;28;20726;-75
2023/07/22 09:05:05;;;;;;;3.10;2.10;;;34.60;50.00;;;;;;5045592;28;20685;-75
2023/07/22 09:07:30;;;;;;;5.83;2.20;;;34.60;49.60;;;;;;5025469;28;20587;-75
2023/07/22 09:09:57;;;;;;;2.40;2.00;;;34.80;49.80;;;;;;5015192;28;20591;-75
2023/07/22 09:12:25;;;;;;;3.00;2.13;;;35.00;49.00;;;;;;5049556;28;20614;-75
2023/07/22 09:14:53;;;;;;;2.53;2.20;;;35.20;48.80;;;;;;5015709;28;20673;-75
2023/07/22 09:17:19;;;;;;;2.63;2.10;;;35.30;48.80;;;;;;5032172;28;20601;-75
2023/07/22 09:19:44;;;;;;;2.50;1.87;;;35.50;47.90;;;;;;5031674;28;20571;-75
2023/07/22 09:22:10;;;;;;;4.13;2.37;;;35.80;47.90;;;;;;5049702;28;20208;-75
2023/07/22 09:24:36;;;;;;;3.50;2.50;;;35.90;47.20;;;;;;4999036;28;20203;-75
2023/07/22 09:27:01;;;;;;;2.57;2.13;;;36.20;47.20;;;;;;5050044;28;20180;-75
2023/07/22 09:29:35;;;;;;;3.27;2.20;;;36.50;46.60;;;;;;5015219;28;20204;-75
2023/07/22 09:32:00;;;;;;;2.50;2.10;;;36.70;45.10;;;;;;5049502;28;20189;-75
2023/07/22 09:34:27;;;;;;;3.33;2.53;;;36.80;45.30;;;;;;5050063;28;20613;-75
2023/07/22 09:36:54;;;;;;;3.50;2.17;;;36.60;43.90;;;;;;5049729;28;20184;-75
2023/07/22 09:39:21;;;;;;;2.30;2.07;;;36.40;43.20;;;;;;5015195;28;20595;-75
2023/07/22 09:41:47;;;;;;;3.60;2.10;;;36.30;42.90;;;;;;5049272;28;20681;-75
2023/07/22 09:44:13;;;;;;;3.73;2.63;;;36.30;43.10;;;;;;5032054;28;20675;-74
2023/07/22 09:46:39;;;;;;;2.90;2.20;;;36.40;43.20;;;;;;5031699;28;20654;-74
2023/07/22 09:49:07;;;;;;;2.53;1.90;;;36.50;43.10;;;;;;5049572;28;20173;-75
2023/07/22 09:51:40;;;;;;;3.00;2.00;;;36.50;42.50;;;;;;5049044;28;20607;-75
2023/07/22 09:54:07;;;;;;;3.03;1.90;;;36.40;41.70;;;;;;5049779;28;20579;-76
2023/07/22 09:56:45;;;;;;;2.57;1.80;;;36.40;42.10;;;;;;5032904;28;20590;-75
2023/07/22 09:59:11;;;;;;;2.33;1.40;;;36.50;41.30;;;;;;5053145;28;20664;-75
2023/07/22 10:01:40;;;;;;;2.57;1.40;;;36.50;41.00;;;;;;5022495;28;20654;-77
2023/07/22 10:04:07;;;;;;;1.80;1.00;;;36.50;40.00;;;;;;5047953;28;20646;-76
2023/07/22 10:06:34;;;;;;;2.10;1.20;;;36.60;39.90;;;;;;5029252;28;20586;-76
2023/07/22 10:09:08;;;;;;;3.00;1.10;;;36.60;39.20;;;;;;5034649;28;20629;-77
2023/07/22 10:11:35;;;;;;;2.43;1.00;;;36.70;37.80;;;;;;5024658;28;20722;-77
2023/07/22 10:14:02;;;;;;;2.10;1.50;;;36.70;38.20;;;;;;5023776;28;20935;-76
2023/07/22 10:16:28;;;;;;;2.20;1.27;;;36.80;38.00;;;;;;5025716;28;20595;-76
2023/07/22 10:18:55;;;;;;;3.00;1.13;;;36.90;37.90;;;;;;5026178;28;20603;-76
2023/07/22 10:21:21;;;;;;;1.80;1.00;;;36.90;37.20;;;;;;5028160;28;20619;-76
2023/07/22 10:23:48;;;;;;;2.90;1.03;;;37.10;37.50;;;;;;5025696;28;20662;-77
2023/07/22 10:26:17;;;;;;;2.40;1.23;;;37.20;37.60;;;;;;5051619;28;20662;-77
2023/07/22 10:28:45;;;;;;;2.53;1.20;;;37.50;36.80;;;;;;5052928;28;21014;-77
2023/07/22 10:31:12;;;;;;;2.20;0.97;;;37.50;36.10;;;;;;5052732;28;20593;-76
2023/07/22 10:33:38;;;;;;;2.40;1.03;;;37.50;35.80;;;;;;5033208;28;20634;-76
2023/07/22 10:36:12;;;;;;;1.90;1.07;;;37.40;35.70;;;;;;5044779;28;21138;-77
2023/07/22 10:38:39;;;;;;;3.60;1.53;;;37.30;34.80;;;;;;5052723;28;20218;-77
2023/07/22 10:41:16;;;;;;;2.70;1.93;;;37.00;34.40;;;;;;5017717;28;20579;-76
2023/07/22 10:43:54;;;;;;;2.80;2.27;;;36.60;34.00;;;;;;5052400;28;20981;-77
2023/07/22 10:46:40;;;;;;;3.03;1.97;;;36.50;35.20;;;;;;5052448;28;20579;-77
2023/07/22 10:49:16;;;;;;;2.00;1.17;;;36.70;34.50;;;;;;5034133;28;20586;-77
2023/07/22 10:51:50;;;;;;;2.13;1.23;;;36.70;34.50;;;;;;5034444;28;20633;-77
2023/07/22 10:54:36;;;;;;;2.40;1.47;;;36.80;34.30;;;;;;5001889;28;20586;-77
2023/07/22 10:57:17;;;;;;;1.80;1.10;;;36.80;33.60;;;;;;5034611;28;20601;-77
2023/07/22 10:59:52;;;;;;;2.33;0.90;;;36.60;33.30;;;;;;5017507;28;20597;-77
2023/07/22 11:02:28;;;;;;;1.67;1.07;;;36.50;33.70;;;;;;5050830;28;20987;-77
2023/07/22 11:04:57;;;;;;;2.27;1.33;;;36.30;32.50;;;;;;5022563;28;20626;-77
2023/07/22 11:07:42;;;;;;;1.70;1.00;;;36.10;33.20;;;;;;4994073;28;20660;-77
2023/07/22 11:10:18;;;;;;;3.80;1.27;;;35.80;33.00;;;;;;5011959;28;20566;-77
2023/07/22 11:12:45;;;;;;;2.70;1.20;;;35.70;33.30;;;;;;5029599;28;20665;-77
2023/07/22 11:15:14;;;;;;;1.70;0.83;;;35.70;33.80;;;;;;5043717;28;20645;-77
2023/07/22 11:17:40;;;;;;;2.47;1.20;;;35.90;34.30;;;;;;5033644;28;20587;-77
2023/07/22 11:20:06;;;;;;;1.80;1.00;;;36.00;34.00;;;;;;5033896;28;20632;-76
2023/07/22 11:22:31;;;;;;;2.53;1.30;;;36.30;34.20;;;;;;5044625;28;20220;-77
2023/07/22 11:25:00;;;;;;;2.57;1.33;;;36.40;33.80;;;;;;5014533;28;20600;-76
2023/07/22 11:27:26;;;;;;;3.20;1.30;;;36.40;33.30;;;;;;5033800;28;20188;-77
2023/07/22 11:29:52;;;;;;;2.77;1.70;;;36.50;33.30;;;;;;5033677;28;21111;-77
2023/07/22 11:32:21;;;;;;;2.93;1.30;;;36.50;32.60;;;;;;5051429;28;20196;-77
2023/07/22 11:34:48;;;;;;;2.47;1.60;;;36.40;32.20;;;;;;5034205;28;20173;-77
2023/07/22 11:37:14;;;;;;;2.00;1.10;;;36.30;32.30;;;;;;5033353;28;21375;-77
2023/07/22 11:39:41;;;;;;;2.40;1.20;;;36.10;32.00;;;;;;5046867;28;20591;-77
2023/07/22 11:42:07;;;;;;;1.80;1.30;;;36.00;32.20;;;;;;5042755;28;20619;-77
2023/07/22 11:44:33;;;;;;;2.17;1.33;;;35.90;32.00;;;;;;5033895;28;21173;-77
2023/07/22 11:47:04;;;;;;;4.70;1.60;;;35.70;31.80;;;;;;5051662;28;20172;-76
2023/07/22 11:49:38;;;;;;;3.60;1.77;;;35.60;31.70;;;;;;5050810;28;20585;-76
2023/07/22 11:52:08;;;;;;;2.57;1.50;;;35.30;31.60;;;;;;5033063;28;20635;-76
2023/07/22 11:54:39;;;;;;;2.60;1.63;;;35.20;32.00;;;;;;5033799;28;20578;-76
2023/07/22 11:57:14;;;;;;;2.23;1.20;;;35.00;32.30;;;;;;5051547;28;20578;-76
2023/07/22 11:59:45;;;;;;;4.17;1.50;;;34.90;32.30;;;;;;5050594;28;20577;-76
2023/07/22 12:02:16;;;;;;;2.13;1.10;;;34.80;32.40;;;;;;5033027;28;20622;-76
2023/07/22 12:04:43;;;;;;;1.63;1.00;;;34.70;32.30;;;;;;5016209;28;20629;-76
2023/07/22 12:07:34;;;;;;;2.67;1.20;;;34.50;32.40;;;;;;5014968;28;20590;-76
2023/07/22 12:10:03;;;;;;;2.50;1.33;;;34.40;32.00;;;;;;5047608;28;21190;-76
2023/07/22 12:12:49;;;;;;;1.90;1.33;;;34.30;32.30;;;;;;5050782;28;20594;-76
2023/07/22 12:15:17;;;;;;;2.20;0.97;;;34.20;32.50;;;;;;5032869;28;20643;-76
2023/07/22 12:17:59;;;;;;;2.10;1.10;;;34.20;33.20;;;;;;5013872;28;20986;-76
2023/07/22 12:20:28;;;;;;;2.47;1.00;;;34.10;32.50;;;;;;5012864;28;20570;-76
2023/07/22 12:22:54;;;;;;;2.03;1.40;;;34.10;32.30;;;;;;5012792;28;21043;-76
2023/07/22 12:25:20;;;;;;;2.00;1.20;;;33.90;32.10;;;;;;5038306;28;20589;-76
2023/07/22 12:27:46;;;;;;;2.10;1.23;;;33.90;32.10;;;;;;5027977;28;20914;-76
2023/07/22 12:30:12;;;;;;;2.33;1.40;;;33.70;32.50;;;;;;5049587;28;20171;-76
2023/07/22 12:32:38;;;;;;;2.00;1.40;;;33.70;32.50;;;;;;5046522;28;20198;-76
2023/07/22 12:35:05;;;;;;;1.83;1.07;;;33.80;32.40;;;;;;5042038;28;20189;-76
2023/07/22 12:37:30;;;;;;;1.80;1.00;;;33.80;32.70;;;;;;5050788;28;21002;-76
2023/07/22 12:39:56;;;;;;;1.73;0.93;;;33.80;32.40;;;;;;5031938;28;20700;-76
2023/07/22 12:42:22;;;;;;;1.70;1.00;;;33.80;32.40;;;;;;5030363;28;20202;-76
2023/07/22 12:44:48;;;;;;;1.60;1.00;;;33.70;32.40;;;;;;5024455;28;20605;-76
2023/07/22 12:47:14;;;;;;;2.10;1.03;;;33.60;32.20;;;;;;5032263;28;20597;-76